createdAt,value
2019-02-02T00:00:54.626Z,23.60
2019-02-02T00:03:28.039Z,22.60
2019-02-02T00:05:59.362Z,24.40
2019-02-02T00:08:33.920Z,24.17
2019-02-02T00:11:05.549Z,24.80
2019-02-02T00:13:39.135Z,23.60
2019-02-02T00:16:10.305Z,23.60
2019-02-02T00:18:43.893Z,22.03
2019-02-02T00:21:15.275Z,23.23
2019-02-02T00:23:48.962Z,24.10
2019-02-02T00:26:20.490Z,23.07
2019-02-02T00:28:54.804Z,23.60
2019-02-02T00:31:29.074Z,21.83
2019-02-02T00:34:02.220Z,24.10
2019-02-02T00:36:33.586Z,23.47
2019-02-02T00:39:09.935Z,23.10
2019-02-02T00:41:41.346Z,23.00
2019-02-02T00:44:14.785Z,22.17
2019-02-02T00:46:45.931Z,23.63
2019-02-02T00:49:19.514Z,24.23
2019-02-02T00:51:50.918Z,22.80
2019-02-02T00:54:24.519Z,23.53
2019-02-02T00:56:55.692Z,22.83
2019-02-02T00:59:29.038Z,24.90
2019-02-02T01:02:01.418Z,21.90
2019-02-02T01:04:34.682Z,22.60
2019-02-02T01:07:06.744Z,25.67
2019-02-02T01:09:39.985Z,24.80
2019-02-02T01:12:11.426Z,23.23
2019-02-02T01:14:44.690Z,22.17
2019-02-02T01:17:16.187Z,24.50
2019-02-02T01:19:49.575Z,24.77
2019-02-02T01:22:20.735Z,25.33
2019-02-02T01:24:54.138Z,26.07
2019-02-02T01:27:25.518Z,23.93
2019-02-02T01:30:00.089Z,26.80
2019-02-02T01:32:34.779Z,27.00
2019-02-02T01:35:09.054Z,25.50
2019-02-02T01:37:40.366Z,25.40
2019-02-02T01:40:18.294Z,27.17
2019-02-02T01:42:49.781Z,23.77
2019-02-02T01:45:23.801Z,26.97
2019-02-02T01:47:55.410Z,26.83
2019-02-02T01:50:29.868Z,25.60
2019-02-02T01:53:01.225Z,29.30
2019-02-02T01:55:34.498Z,24.77
2019-02-02T01:58:15.953Z,27.13
2019-02-02T02:00:41.336Z,28.83
2019-02-02T02:03:13.559Z,25.80
2019-02-02T02:05:48.067Z,24.70
2019-02-02T02:08:19.578Z,27.17
2019-02-02T02:10:53.108Z,28.20
2019-02-02T02:13:24.666Z,27.67
2019-02-02T02:15:58.208Z,26.40
2019-02-02T02:18:29.315Z,26.70
2019-02-02T02:21:02.737Z,26.43
2019-02-02T02:23:35.198Z,26.40
2019-02-02T02:26:08.673Z,29.40
2019-02-02T02:28:40.022Z,25.67
2019-02-02T02:31:13.697Z,24.40
2019-02-02T02:33:45.080Z,29.20
2019-02-02T02:36:42.009Z,26.43
2019-02-02T02:39:14.310Z,28.67
2019-02-02T02:41:46.518Z,34.20
2019-02-02T02:44:19.039Z,35.60
2019-02-02T02:46:51.417Z,34.40
2019-02-02T02:49:23.777Z,39.00
2019-02-02T02:51:56.130Z,38.77
2019-02-02T02:54:28.538Z,40.93
2019-02-02T02:57:00.720Z,40.57
2019-02-02T02:59:33.179Z,41.43
2019-02-02T03:02:05.706Z,38.97
2019-02-02T03:04:38.221Z,39.43
2019-02-02T03:07:10.433Z,40.13
2019-02-02T03:09:41.611Z,41.90
2019-02-02T03:12:17.101Z,36.67
2019-02-02T03:14:48.010Z,39.70
2019-02-02T03:17:21.429Z,37.27
2019-02-02T03:19:52.802Z,42.53
2019-02-02T03:22:26.103Z,41.00
2019-02-02T03:24:57.375Z,39.30
2019-02-02T03:27:30.652Z,39.07
2019-02-02T03:30:01.878Z,46.07
2019-02-02T03:32:36.843Z,43.57
2019-02-02T03:35:09.216Z,47.80
2019-02-02T03:37:42.652Z,51.43
2019-02-02T03:40:18.527Z,48.73
2019-02-02T03:42:52.289Z,46.03
2019-02-02T03:45:24.045Z,45.33
2019-02-02T03:47:57.628Z,44.93
2019-02-02T03:50:28.979Z,52.30
2019-02-02T03:53:02.430Z,47.47
2019-02-02T03:55:33.825Z,46.50
2019-02-02T03:58:07.407Z,39.43
2019-02-02T04:00:39.037Z,46.30
2019-02-02T04:03:12.735Z,47.13
2019-02-02T04:05:44.148Z,46.73
2019-02-02T04:08:17.351Z,47.40
2019-02-02T04:10:48.784Z,47.97
2019-02-02T04:13:22.482Z,44.23
2019-02-02T04:15:53.801Z,47.57
2019-02-02T04:18:27.301Z,44.80
2019-02-02T04:20:58.573Z,44.00
2019-02-02T04:23:32.104Z,38.43
2019-02-02T04:26:03.719Z,43.80
2019-02-02T04:28:37.223Z,38.43
2019-02-02T04:31:08.575Z,41.80
2019-02-02T04:33:42.231Z,43.57
2019-02-02T04:36:13.713Z,42.60
2019-02-02T04:38:47.002Z,41.17
2019-02-02T04:41:18.339Z,41.27
2019-02-02T04:43:51.804Z,40.00
2019-02-02T04:46:23.219Z,38.30
2019-02-02T04:48:56.826Z,45.87
2019-02-02T04:51:28.330Z,40.53
2019-02-02T04:54:01.523Z,45.40
2019-02-02T04:56:32.991Z,44.80
2019-02-02T04:59:06.690Z,43.60
2019-02-02T05:01:37.929Z,42.37
2019-02-02T05:04:11.484Z,37.17
2019-02-02T05:06:42.915Z,38.80
2019-02-02T05:09:16.309Z,39.57
2019-02-02T05:11:47.729Z,39.67
2019-02-02T05:14:21.043Z,37.47
2019-02-02T05:16:52.274Z,37.30
2019-02-02T05:19:26.034Z,37.13
2019-02-02T05:21:57.505Z,36.87
2019-02-02T05:24:30.813Z,37.90
2019-02-02T05:27:02.112Z,36.17
2019-02-02T05:29:41.648Z,34.70
2019-02-02T05:32:08.038Z,32.87
2019-02-02T05:34:41.243Z,35.20
2019-02-02T05:37:12.563Z,33.13
2019-02-02T05:39:46.123Z,33.90
2019-02-02T05:42:17.715Z,36.13
2019-02-02T05:44:50.825Z,38.97
2019-02-02T05:47:24.918Z,37.70
2019-02-02T05:49:58.384Z,33.40
2019-02-02T05:52:29.642Z,32.13
2019-02-02T05:55:03.401Z,34.43
2019-02-02T05:57:34.675Z,33.07
2019-02-02T06:00:09.632Z,31.10
2019-02-02T06:02:40.837Z,32.37
2019-02-02T06:05:14.279Z,33.97
2019-02-02T06:07:45.543Z,39.47
2019-02-02T06:10:19.196Z,40.07
2019-02-02T06:12:50.477Z,58.07
2019-02-02T06:15:23.966Z,42.50
2019-02-02T06:17:55.230Z,47.27
2019-02-02T06:20:28.535Z,42.50
2019-02-02T06:22:59.875Z,38.97
2019-02-02T06:25:34.322Z,43.77
2019-02-02T06:28:08.854Z,42.00
2019-02-02T06:30:41.924Z,45.20
2019-02-02T06:33:13.301Z,38.40
2019-02-02T06:35:47.273Z,43.03
2019-02-02T06:38:18.633Z,43.50
2019-02-02T06:40:52.000Z,43.90
2019-02-02T06:43:23.440Z,48.00
2019-02-02T06:45:56.835Z,41.53
2019-02-02T06:48:28.079Z,47.50
2019-02-02T06:51:01.656Z,44.20
2019-02-02T06:53:32.988Z,45.97
2019-02-02T06:56:06.665Z,52.50
2019-02-02T06:58:37.870Z,53.03
2019-02-02T07:01:11.143Z,53.37
2019-02-02T07:03:43.486Z,51.57
2019-02-02T07:06:17.025Z,53.10
2019-02-02T07:08:48.733Z,51.90
2019-02-02T07:11:22.154Z,47.60
2019-02-02T07:13:53.450Z,49.73
2019-02-02T07:16:26.823Z,54.30
2019-02-02T07:18:58.200Z,53.90
2019-02-02T07:21:31.804Z,51.73
2019-02-02T07:24:03.092Z,43.93
2019-02-02T07:26:36.635Z,53.80
2019-02-02T07:29:08.017Z,54.27
2019-02-02T07:31:41.237Z,62.07
2019-02-02T07:34:12.610Z,62.27
2019-02-02T07:36:45.998Z,50.20
2019-02-02T07:39:17.425Z,54.37
2019-02-02T07:41:50.849Z,55.90
2019-02-02T07:44:22.528Z,50.03
2019-02-02T07:46:56.138Z,52.40
2019-02-02T07:49:27.409Z,52.57
2019-02-02T07:52:00.746Z,51.50
2019-02-02T07:54:33.185Z,47.23
2019-02-02T07:57:06.550Z,44.53
2019-02-02T07:59:37.908Z,43.80
2019-02-02T08:02:11.274Z,47.80
2019-02-02T08:04:42.558Z,43.83
2019-02-02T08:07:15.780Z,44.17
2019-02-02T08:09:47.366Z,43.50
2019-02-02T08:12:20.777Z,45.70
2019-02-02T08:14:52.199Z,46.40
2019-02-02T08:17:48.380Z,45.73
2019-02-02T08:20:20.544Z,43.90
2019-02-02T08:22:56.513Z,39.97
2019-02-02T08:25:27.813Z,45.43
2019-02-02T08:28:01.215Z,51.30
2019-02-02T08:30:35.615Z,49.87
2019-02-02T08:33:08.618Z,45.93
2019-02-02T08:35:39.957Z,53.43
2019-02-02T08:38:13.519Z,54.00
2019-02-02T08:40:44.733Z,55.73
2019-02-02T08:43:18.264Z,66.30
2019-02-02T08:45:49.587Z,67.60
2019-02-02T08:48:22.994Z,77.57
2019-02-02T08:50:54.612Z,74.00
2019-02-02T08:53:27.986Z,78.13
2019-02-02T08:55:59.601Z,72.10
2019-02-02T08:58:32.925Z,69.40
2019-02-02T09:01:04.620Z,79.63
2019-02-02T09:03:38.331Z,72.67
2019-02-02T09:06:09.700Z,63.53
2019-02-02T09:08:43.015Z,70.67
2019-02-02T09:11:14.225Z,60.93
2019-02-02T09:13:47.518Z,67.87
2019-02-02T09:16:18.918Z,75.77
2019-02-02T09:18:53.331Z,70.67
2019-02-02T09:21:27.610Z,78.83
2019-02-02T09:24:00.889Z,71.57
2019-02-02T09:26:32.304Z,75.57
2019-02-02T09:29:05.723Z,69.40
2019-02-02T09:31:37.249Z,66.27
2019-02-02T09:34:10.806Z,62.67
2019-02-02T09:36:43.219Z,62.50
2019-02-02T09:39:16.774Z,68.60
2019-02-02T09:41:48.238Z,65.23
2019-02-02T09:44:21.493Z,66.10
2019-02-02T09:46:52.738Z,65.40
2019-02-02T09:49:26.165Z,64.73
2019-02-02T09:51:57.435Z,62.60
2019-02-02T09:54:35.127Z,58.23
2019-02-02T09:57:06.453Z,60.00
2019-02-02T10:00:03.238Z,54.53
2019-02-02T10:02:35.797Z,52.20
2019-02-02T10:05:08.370Z,48.47
2019-02-02T10:07:40.810Z,44.03
2019-02-02T10:10:15.093Z,41.80
2019-02-02T10:12:47.452Z,43.70
2019-02-02T10:15:20.754Z,46.07
2019-02-02T10:17:52.037Z,44.17
2019-02-02T10:20:26.497Z,49.53
2019-02-02T10:22:58.345Z,57.57
2019-02-02T10:25:32.290Z,60.83
2019-02-02T10:28:03.339Z,59.70
2019-02-02T10:30:43.542Z,55.07
2019-02-02T10:33:15.378Z,57.07
2019-02-02T10:35:48.923Z,60.00
2019-02-02T10:38:20.183Z,56.20
2019-02-02T10:40:53.437Z,52.57
2019-02-02T10:43:24.728Z,53.60
2019-02-02T10:45:58.363Z,47.20
2019-02-02T10:48:29.712Z,44.43
2019-02-02T10:51:03.220Z,43.93
2019-02-02T10:53:34.583Z,38.87
2019-02-02T10:56:08.495Z,36.67
2019-02-02T10:58:40.067Z,34.03
2019-02-02T11:01:13.412Z,31.43
2019-02-02T11:03:47.850Z,28.00
2019-02-02T11:06:21.406Z,24.83
2019-02-02T11:08:52.581Z,21.23
2019-02-02T11:11:25.776Z,16.53
2019-02-02T11:13:57.416Z,15.87
2019-02-02T11:16:30.853Z,14.30
2019-02-02T11:19:02.479Z,24.80
2019-02-02T11:21:35.961Z,29.90
2019-02-02T11:24:07.486Z,32.77
2019-02-02T11:26:41.012Z,28.57
2019-02-02T11:29:13.381Z,34.03
2019-02-02T11:31:45.712Z,31.47
2019-02-02T11:34:18.334Z,32.50
2019-02-02T11:36:50.737Z,32.47
2019-02-02T11:39:23.023Z,33.30
2019-02-02T11:41:55.604Z,31.25
2019-02-02T11:44:28.150Z,31.00
2019-02-02T11:47:00.570Z,33.97
2019-02-02T11:49:31.970Z,35.97
2019-02-02T11:52:05.146Z,32.10
2019-02-02T11:54:36.433Z,31.30
2019-02-02T11:57:09.856Z,34.13
2019-02-02T11:59:41.057Z,31.90
2019-02-02T12:02:15.005Z,29.87
2019-02-02T12:04:46.389Z,27.60
2019-02-02T12:07:20.025Z,27.10
2019-02-02T12:09:51.226Z,29.33
2019-02-02T12:12:24.759Z,28.03
2019-02-02T12:14:56.951Z,26.27
2019-02-02T12:17:31.061Z,26.43
2019-02-02T12:20:02.182Z,24.00
2019-02-02T12:22:35.563Z,26.13
2019-02-02T12:25:07.255Z,21.30
2019-02-02T12:27:40.656Z,22.57
2019-02-02T12:30:13.089Z,20.00
2019-02-02T12:32:46.386Z,21.77
2019-02-02T12:35:18.658Z,21.60
2019-02-02T12:37:53.399Z,21.03
2019-02-02T12:40:27.726Z,24.97
2019-02-02T12:43:01.276Z,23.63
2019-02-02T12:45:39.932Z,23.33
2019-02-02T12:48:13.108Z,25.33
2019-02-02T12:50:44.341Z,23.30
2019-02-02T12:53:17.630Z,17.70
2019-02-02T12:55:48.834Z,17.33
2019-02-02T12:58:22.284Z,17.80
2019-02-02T13:00:53.743Z,17.77
2019-02-02T13:03:27.131Z,17.93
2019-02-02T13:05:58.423Z,19.50
2019-02-02T13:08:31.849Z,19.37
2019-02-02T13:11:03.078Z,20.50
2019-02-02T13:13:36.398Z,18.73
2019-02-02T13:16:07.658Z,16.90
2019-02-02T13:18:41.112Z,15.90
2019-02-02T13:21:12.437Z,11.50
2019-02-02T13:23:45.699Z,13.40
2019-02-02T13:26:17.001Z,14.30
2019-02-02T13:28:50.371Z,14.20
2019-02-02T13:31:22.699Z,17.40
2019-02-02T13:33:55.576Z,18.17
2019-02-02T13:36:28.241Z,18.47
2019-02-02T13:39:00.663Z,18.33
2019-02-02T13:41:34.391Z,18.77
2019-02-02T13:44:06.846Z,18.70
2019-02-02T13:46:39.283Z,19.57
2019-02-02T13:49:12.340Z,21.97
2019-02-02T13:51:43.671Z,21.30
2019-02-02T13:54:16.965Z,18.40
2019-02-02T13:56:49.930Z,18.13
2019-02-02T13:59:23.752Z,17.63
2019-02-02T14:01:57.144Z,17.90
2019-02-02T14:04:30.374Z,15.33
2019-02-02T14:07:01.689Z,16.07
2019-02-02T14:09:34.866Z,16.97
2019-02-02T14:12:06.027Z,16.00
2019-02-02T14:14:39.511Z,15.73
2019-02-02T14:17:10.859Z,14.67
2019-02-02T14:19:44.554Z,15.80
2019-02-02T14:22:15.895Z,17.13
2019-02-02T14:24:49.355Z,16.87
2019-02-02T14:27:20.672Z,17.87
2019-02-02T14:29:53.995Z,18.20
2019-02-02T14:32:26.494Z,19.77
2019-02-02T14:34:59.358Z,20.00
2019-02-02T14:37:31.858Z,17.23
2019-02-02T14:40:04.157Z,19.37
2019-02-02T14:42:36.585Z,17.17
2019-02-02T14:45:09.563Z,16.93
2019-02-02T14:47:42.757Z,15.70
2019-02-02T14:50:18.797Z,14.97
2019-02-02T14:52:49.404Z,14.23
2019-02-02T14:55:27.242Z,13.10
2019-02-02T14:57:58.339Z,12.03
2019-02-02T15:00:32.018Z,13.33
2019-02-02T15:03:05.376Z,14.83
2019-02-02T15:05:43.059Z,15.33
2019-02-02T15:08:11.954Z,15.80
2019-02-02T15:10:45.484Z,17.23
2019-02-02T15:13:16.747Z,18.93
2019-02-02T15:15:50.190Z,21.87
2019-02-02T15:18:21.615Z,20.87
2019-02-02T15:20:55.267Z,21.43
2019-02-02T15:23:26.693Z,22.97
2019-02-02T15:26:05.719Z,28.23
2019-02-02T15:28:37.076Z,32.27
2019-02-02T15:31:10.457Z,31.10
2019-02-02T15:33:41.759Z,32.40
2019-02-02T15:36:15.361Z,30.03
2019-02-02T15:38:46.533Z,32.60
2019-02-02T15:41:20.769Z,29.10
2019-02-02T15:43:52.122Z,29.33
2019-02-02T15:46:26.943Z,30.13
2019-02-02T15:48:58.466Z,28.47
2019-02-02T15:51:39.938Z,29.37
2019-02-02T15:54:05.341Z,31.00
2019-02-02T15:56:41.974Z,34.53
2019-02-02T15:59:16.593Z,35.33
2019-02-02T16:01:49.972Z,29.03
2019-02-02T16:04:21.406Z,29.63
2019-02-02T16:06:55.087Z,29.20
2019-02-02T16:09:26.370Z,40.63
2019-02-02T16:11:59.945Z,32.73
2019-02-02T16:14:31.609Z,32.00
2019-02-02T16:17:04.937Z,30.20
2019-02-02T16:19:36.459Z,37.20
2019-02-02T16:22:10.126Z,36.10
2019-02-02T16:24:41.378Z,36.40
2019-02-02T16:27:14.823Z,37.00
2019-02-02T16:29:46.150Z,39.90
2019-02-02T16:32:20.074Z,37.07
2019-02-02T16:34:51.615Z,37.50
2019-02-02T16:37:24.911Z,41.60
2019-02-02T16:39:56.093Z,41.27
2019-02-02T16:42:29.657Z,40.40
2019-02-02T16:45:01.344Z,40.87
2019-02-02T16:47:34.934Z,40.77
2019-02-02T16:50:07.085Z,43.30
2019-02-02T16:52:40.883Z,43.43
2019-02-02T16:55:12.531Z,35.10
2019-02-02T16:57:45.977Z,37.33
2019-02-02T17:00:27.351Z,33.43
2019-02-02T17:03:00.646Z,34.40
2019-02-02T17:05:32.946Z,36.33
2019-02-02T17:08:06.532Z,39.20
2019-02-02T17:10:41.158Z,34.60
2019-02-02T17:13:14.652Z,39.07
2019-02-02T17:15:45.869Z,37.53
2019-02-02T17:18:19.315Z,33.93
2019-02-02T17:20:50.662Z,32.80
2019-02-02T17:23:23.937Z,36.20
2019-02-02T17:25:55.159Z,37.10
2019-02-02T17:28:28.851Z,34.37
2019-02-02T17:31:01.499Z,35.73
2019-02-02T17:33:33.777Z,32.57
2019-02-02T17:36:07.043Z,31.87
2019-02-02T17:38:39.225Z,32.13
2019-02-02T17:41:11.639Z,35.30
2019-02-02T17:43:44.059Z,34.03
2019-02-02T17:46:16.563Z,31.90
2019-02-02T17:48:48.999Z,33.00
2019-02-02T17:51:21.670Z,29.67
2019-02-02T17:53:54.698Z,34.27
2019-02-02T17:56:26.065Z,31.43
2019-02-02T17:58:59.632Z,31.97
2019-02-02T18:01:31.007Z,31.97
2019-02-02T18:04:04.663Z,32.90
2019-02-02T18:06:35.953Z,29.97
2019-02-02T18:09:10.365Z,30.47
2019-02-02T18:11:41.721Z,29.43
2019-02-02T18:14:15.294Z,31.77
2019-02-02T18:16:46.547Z,34.00
2019-02-02T18:19:20.157Z,33.87
2019-02-02T18:21:51.444Z,34.27
2019-02-02T18:24:24.852Z,30.43
2019-02-02T18:26:56.189Z,31.23
2019-02-02T18:29:30.155Z,30.23
2019-02-02T18:32:12.524Z,33.17
2019-02-02T18:34:36.851Z,33.83
2019-02-02T18:37:08.415Z,32.37
2019-02-02T18:39:42.076Z,35.07
2019-02-02T18:42:13.641Z,31.10
2019-02-02T18:44:47.223Z,32.43
2019-02-02T18:47:18.653Z,32.77
2019-02-02T18:49:51.881Z,30.67
2019-02-02T18:52:23.290Z,33.10
2019-02-02T18:54:56.687Z,31.83
2019-02-02T18:57:28.085Z,33.87
2019-02-02T19:00:01.643Z,34.50
2019-02-02T19:02:33.147Z,32.20
2019-02-02T19:05:06.808Z,34.33
2019-02-02T19:07:41.530Z,35.10
2019-02-02T19:10:16.223Z,35.30
2019-02-02T19:12:47.619Z,32.80
2019-02-02T19:15:42.146Z,33.70
2019-02-02T19:18:16.527Z,34.03
2019-02-02T19:20:49.944Z,34.07
2019-02-02T19:23:25.476Z,33.07
2019-02-02T19:25:56.139Z,33.43
2019-02-02T19:28:39.111Z,38.40
2019-02-02T19:31:02.602Z,34.40
2019-02-02T19:33:34.043Z,36.40
2019-02-02T19:36:07.626Z,35.03
2019-02-02T19:38:39.435Z,34.53
2019-02-02T19:41:12.789Z,35.10
2019-02-02T19:43:44.168Z,35.60
2019-02-02T19:46:17.521Z,36.77
2019-02-02T19:48:49.138Z,37.30
2019-02-02T19:51:23.530Z,36.37
2019-02-02T19:53:54.774Z,37.00
2019-02-02T19:56:28.246Z,36.57
2019-02-02T19:58:59.757Z,38.47
2019-02-02T20:01:33.175Z,33.30
2019-02-02T20:04:04.425Z,36.50
2019-02-02T20:06:37.809Z,36.17
2019-02-02T20:09:10.117Z,35.17
2019-02-02T20:11:43.774Z,35.80
2019-02-02T20:14:15.869Z,37.20
2019-02-02T20:16:50.077Z,35.17
2019-02-02T20:19:24.714Z,36.20
2019-02-02T20:21:58.064Z,37.20
2019-02-02T20:24:29.403Z,32.60
2019-02-02T20:27:02.865Z,37.80
2019-02-02T20:29:34.208Z,34.90
2019-02-02T20:32:13.639Z,38.57
2019-02-02T20:34:46.355Z,38.23
2019-02-02T20:37:18.978Z,34.87
2019-02-02T20:39:51.459Z,35.80
2019-02-02T20:42:23.927Z,34.40
2019-02-02T20:44:56.367Z,33.27
2019-02-02T20:47:28.691Z,34.30
2019-02-02T20:50:01.352Z,33.53
2019-02-02T20:52:34.119Z,39.43
2019-02-02T20:55:07.286Z,36.03
2019-02-02T20:57:39.986Z,35.50
2019-02-02T21:00:35.207Z,39.10
2019-02-02T21:03:09.708Z,37.93
2019-02-02T21:05:52.011Z,40.30
2019-02-02T21:08:19.364Z,39.40
2019-02-02T21:10:50.659Z,40.70
2019-02-02T21:13:24.234Z,40.40
2019-02-02T21:15:55.686Z,37.40
2019-02-02T21:18:29.194Z,38.80
2019-02-02T21:21:00.503Z,38.93
2019-02-02T21:23:33.933Z,34.57
2019-02-02T21:26:05.414Z,40.80
2019-02-02T21:28:49.774Z,37.80
2019-02-02T21:31:12.013Z,37.77
2019-02-02T21:33:49.517Z,35.80
2019-02-02T21:36:21.925Z,35.40
2019-02-02T21:39:13.139Z,38.10
2019-02-02T21:41:45.705Z,33.47
2019-02-02T21:44:18.071Z,34.70
2019-02-02T21:46:50.494Z,32.90
2019-02-02T21:49:22.805Z,34.20
2019-02-02T21:51:55.202Z,33.43
2019-02-02T21:54:27.545Z,31.00
2019-02-02T21:57:00.033Z,37.10
2019-02-02T21:59:32.525Z,36.20
2019-02-02T22:02:03.688Z,37.07
2019-02-02T22:04:37.106Z,42.30
2019-02-02T22:07:09.391Z,40.10
2019-02-02T22:09:44.046Z,44.87
2019-02-02T22:12:15.788Z,43.57
2019-02-02T22:14:47.936Z,48.80
2019-02-02T22:17:20.674Z,45.67
2019-02-02T22:19:52.883Z,46.93
2019-02-02T22:22:27.157Z,59.83
2019-02-02T22:24:59.505Z,57.83
2019-02-02T22:27:31.857Z,50.43
2019-02-02T22:30:04.274Z,50.50
2019-02-02T22:32:35.566Z,48.40
2019-02-02T22:35:09.122Z,53.93
2019-02-02T22:37:40.521Z,46.60
2019-02-02T22:40:14.352Z,48.90
2019-02-02T22:42:48.878Z,46.60
2019-02-02T22:45:22.866Z,54.53
2019-02-02T22:47:54.465Z,43.53
2019-02-02T22:50:28.117Z,48.67
2019-02-02T22:53:00.759Z,46.80
2019-02-02T22:55:34.070Z,50.93
2019-02-02T22:58:05.933Z,52.87
2019-02-02T23:01:08.665Z,47.30
2019-02-02T23:04:17.690Z,54.77
2019-02-02T23:07:11.206Z,46.10
2019-02-02T23:10:01.293Z,49.83
2019-02-02T23:12:55.394Z,44.57
2019-02-02T23:15:58.086Z,47.90
2019-02-02T23:18:31.535Z,46.50
2019-02-02T23:21:02.687Z,49.93
2019-02-02T23:23:36.114Z,49.63
2019-02-02T23:26:07.533Z,47.23
2019-02-02T23:28:40.852Z,50.30
2019-02-02T23:31:12.174Z,50.73
2019-02-02T23:33:45.808Z,51.37
2019-02-02T23:36:17.214Z,54.90
2019-02-02T23:38:50.554Z,56.13
2019-02-02T23:41:21.801Z,44.10
2019-02-02T23:43:55.242Z,55.80
2019-02-02T23:46:26.659Z,55.57
2019-02-02T23:49:00.011Z,52.83
2019-02-02T23:51:37.218Z,46.63
2019-02-02T23:54:33.552Z,47.07
2019-02-02T23:57:06.029Z,46.37
2019-02-02T23:59:38.399Z,51.20
